createdAt,value
2023-05-04T00:01:06.292Z,16.84
2023-05-04T00:03:32.999Z,16.86
2023-05-04T00:05:59.808Z,16.67
2023-05-04T00:08:26.378Z,15.98
2023-05-04T00:10:53.286Z,15.52
2023-05-04T00:13:20.648Z,15.26
2023-05-04T00:15:47.443Z,14.97
2023-05-04T00:18:14.048Z,14.90
2023-05-04T00:20:40.623Z,15.24
2023-05-04T00:23:07.488Z,15.19
2023-05-04T00:25:34.236Z,15.27
2023-05-04T00:28:01.073Z,15.35
2023-05-04T00:30:27.545Z,15.35
2023-05-04T00:32:54.202Z,15.53
2023-05-04T00:35:21.744Z,15.41
2023-05-04T00:37:49.214Z,15.91
2023-05-04T00:40:15.768Z,16.14
2023-05-04T00:42:42.648Z,16.15
2023-05-04T00:45:09.523Z,16.26
2023-05-04T00:47:36.030Z,16.10
2023-05-04T00:50:03.040Z,16.12
2023-05-04T00:52:29.967Z,16.22
2023-05-04T00:54:56.801Z,16.33
2023-05-04T00:57:23.356Z,16.16
2023-05-04T00:59:49.898Z,16.15
2023-05-04T01:05:26.753Z,16.24
2023-05-04T01:07:53.328Z,16.89
2023-05-04T01:10:19.895Z,16.72
2023-05-04T01:12:47.656Z,17.03
2023-05-04T01:15:14.284Z,17.39
2023-05-04T01:17:41.871Z,17.63
2023-05-04T01:20:09.270Z,17.67
2023-05-04T01:22:35.858Z,17.69
2023-05-04T01:25:02.791Z,17.83
2023-05-04T01:27:29.719Z,17.82
2023-05-04T01:29:56.279Z,17.75
2023-05-04T01:32:24.576Z,17.69
2023-05-04T01:34:51.126Z,17.71
2023-05-04T01:37:17.653Z,17.64
2023-05-04T01:39:44.514Z,17.44
2023-05-04T01:42:11.298Z,16.92
2023-05-04T01:44:39.138Z,16.42
2023-05-04T01:47:05.757Z,16.50
2023-05-04T01:49:32.627Z,16.36
2023-05-04T01:51:59.140Z,16.59
2023-05-04T01:54:25.994Z,16.98
2023-05-04T01:56:52.604Z,16.70
2023-05-04T01:59:19.109Z,16.97
2023-05-04T02:01:45.771Z,17.18
2023-05-04T02:04:12.417Z,17.38
2023-05-04T02:06:39.045Z,17.41
2023-05-04T02:09:05.584Z,17.50
2023-05-04T02:11:32.462Z,17.44
2023-05-04T02:14:02.534Z,17.07
2023-05-04T02:16:29.576Z,17.09
2023-05-04T02:18:58.645Z,17.05
2023-05-04T02:21:25.133Z,17.03
2023-05-04T02:23:51.923Z,17.19
2023-05-04T02:26:25.747Z,17.10
2023-05-04T02:28:52.261Z,16.35
2023-05-04T02:31:18.885Z,16.01
2023-05-04T02:33:45.795Z,15.60
2023-05-04T02:36:12.380Z,15.01
2023-05-04T02:41:55.139Z,14.31
2023-05-04T02:44:21.653Z,14.32
2023-05-04T02:46:49.357Z,14.22
2023-05-04T02:49:16.226Z,14.25
2023-05-04T02:51:43.535Z,14.42
2023-05-04T02:54:10.133Z,14.42
2023-05-04T02:56:36.904Z,14.68
2023-05-04T02:59:03.453Z,14.59
2023-05-04T03:01:34.127Z,15.08
2023-05-04T03:04:01.316Z,15.02
2023-05-04T03:06:27.913Z,14.44
2023-05-04T03:08:55.039Z,14.33
2023-05-04T03:11:23.943Z,14.04
2023-05-04T03:13:53.803Z,14.09
2023-05-04T03:16:20.680Z,13.97
2023-05-04T03:21:31.513Z,13.60
2023-05-04T03:23:58.161Z,13.77
2023-05-04T03:26:25.492Z,13.64
2023-05-04T03:28:52.080Z,13.49
2023-05-04T03:31:19.105Z,13.59
2023-05-04T03:33:46.045Z,13.79
2023-05-04T03:36:12.579Z,14.09
2023-05-04T03:38:39.564Z,14.22
2023-05-04T03:41:06.419Z,14.58
2023-05-04T03:43:33.234Z,15.09
2023-05-04T03:45:59.930Z,15.07
2023-05-04T03:48:27.926Z,14.97
2023-05-04T03:50:57.087Z,15.17
2023-05-04T03:53:23.643Z,15.28
2023-05-04T03:55:50.232Z,15.37
2023-05-04T03:58:17.083Z,15.58
2023-05-04T04:00:43.988Z,15.00
2023-05-04T04:03:11.087Z,15.08
2023-05-04T04:05:38.178Z,15.03
2023-05-04T04:10:50.053Z,14.81
2023-05-04T04:13:16.752Z,14.52
2023-05-04T04:15:43.504Z,14.63
2023-05-04T04:18:10.375Z,14.89
2023-05-04T04:20:36.960Z,14.31
2023-05-04T04:23:03.844Z,14.24
2023-05-04T04:25:30.409Z,14.60
2023-05-04T04:27:57.311Z,14.37
2023-05-04T04:30:24.757Z,14.23
2023-05-04T04:32:51.316Z,14.16
2023-05-04T04:35:18.712Z,14.52
2023-05-04T04:40:37.181Z,15.72
2023-05-04T04:43:09.833Z,16.10
2023-05-04T04:45:36.683Z,16.14
2023-05-04T04:48:03.538Z,15.95
2023-05-04T04:50:30.117Z,16.13
2023-05-04T04:52:56.713Z,15.59
2023-05-04T04:55:23.700Z,15.96
2023-05-04T04:57:50.341Z,15.68
2023-05-04T05:00:26.506Z,16.00
2023-05-04T05:02:53.993Z,15.98
2023-05-04T05:05:20.646Z,16.21
2023-05-04T05:07:48.708Z,16.70
2023-05-04T05:10:16.326Z,16.82
2023-05-04T05:12:42.975Z,17.42
2023-05-04T05:15:09.899Z,18.94
2023-05-04T05:17:42.570Z,20.20
2023-05-04T05:20:11.300Z,21.12
2023-05-04T05:22:38.858Z,22.18
2023-05-04T05:25:05.688Z,23.08
2023-05-04T05:27:33.578Z,23.36
2023-05-04T05:30:00.438Z,23.99
2023-05-04T05:32:27.142Z,24.64
2023-05-04T05:34:53.977Z,25.42
2023-05-04T05:37:23.049Z,25.82
2023-05-04T05:39:51.924Z,25.65
2023-05-04T05:42:19.560Z,26.53
2023-05-04T05:44:46.168Z,27.38
2023-05-04T05:47:15.768Z,26.81
2023-05-04T05:49:45.447Z,26.58
2023-05-04T05:52:14.564Z,26.28
2023-05-04T05:54:51.497Z,27.15
2023-05-04T05:57:18.299Z,27.62
2023-05-04T05:59:46.731Z,27.56
2023-05-04T06:02:13.836Z,28.07
2023-05-04T06:04:41.760Z,28.83
2023-05-04T06:07:10.235Z,28.96
2023-05-04T06:09:37.110Z,29.32
2023-05-04T06:12:03.992Z,28.20
2023-05-04T06:14:32.801Z,28.41
2023-05-04T06:17:00.265Z,27.77
2023-05-04T06:19:29.046Z,26.75
2023-05-04T06:21:58.562Z,26.21
2023-05-04T06:24:29.900Z,27.04
2023-05-04T06:26:58.434Z,27.18
2023-05-04T06:32:29.806Z,25.73
2023-05-04T06:34:56.842Z,26.48
2023-05-04T06:37:24.537Z,27.47
2023-05-04T06:39:54.352Z,28.11
2023-05-04T06:42:25.580Z,28.34
2023-05-04T06:44:52.390Z,27.82
2023-05-04T06:47:19.252Z,28.22
2023-05-04T06:49:46.376Z,28.74
2023-05-04T06:52:15.410Z,28.43
2023-05-04T06:54:42.947Z,28.18
2023-05-04T06:57:09.837Z,28.70
2023-05-04T06:59:36.714Z,28.74
2023-05-04T07:02:03.506Z,28.89
2023-05-04T07:04:33.772Z,28.38
2023-05-04T07:07:07.964Z,28.29
2023-05-04T07:09:38.601Z,27.83
2023-05-04T07:12:07.593Z,28.50
2023-05-04T07:14:34.546Z,27.91
2023-05-04T07:17:01.158Z,28.14
2023-05-04T07:19:27.737Z,28.47
2023-05-04T07:21:54.328Z,28.23
2023-05-04T07:24:21.846Z,28.10
2023-05-04T07:26:50.179Z,28.08
2023-05-04T07:29:21.049Z,27.71
2023-05-04T07:31:52.631Z,27.78
2023-05-04T07:34:20.145Z,27.60
2023-05-04T07:36:46.999Z,26.94
2023-05-04T07:39:15.944Z,26.72
2023-05-04T07:41:43.252Z,26.25
2023-05-04T07:46:50.451Z,25.42
2023-05-04T07:49:17.822Z,25.42
2023-05-04T07:51:52.000Z,25.24
2023-05-04T07:54:22.039Z,24.60
2023-05-04T07:56:55.478Z,24.59
2023-05-04T07:59:22.181Z,24.06
2023-05-04T08:01:49.883Z,23.84
2023-05-04T08:04:16.999Z,23.74
2023-05-04T08:06:43.933Z,23.25
2023-05-04T08:09:10.848Z,23.00
2023-05-04T08:11:40.684Z,21.28
2023-05-04T08:14:07.718Z,21.29
2023-05-04T08:16:34.776Z,21.59
2023-05-04T08:19:09.099Z,21.43
2023-05-04T08:21:39.228Z,21.33
2023-05-04T08:24:08.507Z,20.58
2023-05-04T08:26:37.058Z,21.01
2023-05-04T08:29:04.154Z,20.76
2023-05-04T08:31:30.925Z,21.07
2023-05-04T08:33:58.100Z,20.85
2023-05-04T08:36:27.788Z,20.88
2023-05-04T08:38:59.138Z,20.83
2023-05-04T08:41:37.230Z,20.45
2023-05-04T08:44:10.738Z,20.26
2023-05-04T08:46:45.753Z,19.85
2023-05-04T08:49:12.486Z,19.51
2023-05-04T08:51:40.294Z,19.94
2023-05-04T08:54:07.219Z,20.20
2023-05-04T08:56:36.161Z,19.91
2023-05-04T08:59:03.700Z,19.71
2023-05-04T09:01:30.683Z,20.18
2023-05-04T09:03:57.729Z,20.24
2023-05-04T09:06:30.727Z,19.74
2023-05-04T09:11:54.927Z,19.98
2023-05-04T09:14:25.371Z,20.19
2023-05-04T09:19:50.187Z,20.56
2023-05-04T09:22:17.352Z,20.15
2023-05-04T09:24:44.501Z,20.13
2023-05-04T09:27:11.425Z,20.24
2023-05-04T09:29:38.007Z,20.36
2023-05-04T09:32:05.513Z,20.08
2023-05-04T09:34:35.282Z,20.14
2023-05-04T09:37:02.208Z,20.12
2023-05-04T09:39:28.987Z,20.73
2023-05-04T09:41:55.817Z,20.17
2023-05-04T09:44:24.770Z,20.57
2023-05-04T09:46:56.620Z,20.95
2023-05-04T09:49:23.969Z,20.46
2023-05-04T09:51:50.767Z,20.89
2023-05-04T09:54:17.885Z,21.13
2023-05-04T09:56:46.918Z,20.76
2023-05-04T09:59:16.245Z,20.37
2023-05-04T10:01:44.936Z,20.45
2023-05-04T10:04:12.402Z,20.36
2023-05-04T10:06:40.019Z,20.96
2023-05-04T10:09:08.058Z,21.23
2023-05-04T10:11:35.004Z,21.30
2023-05-04T10:14:02.209Z,21.07
2023-05-04T10:16:33.254Z,21.05
2023-05-04T10:19:02.747Z,21.58
2023-05-04T10:21:29.741Z,21.72
2023-05-04T10:23:59.014Z,21.96
2023-05-04T10:26:27.930Z,22.03
2023-05-04T10:28:54.899Z,21.35
2023-05-04T10:31:24.243Z,21.68
2023-05-04T10:33:54.584Z,21.80
2023-05-04T10:36:25.995Z,21.52
2023-05-04T10:38:53.532Z,22.05
2023-05-04T10:41:22.096Z,22.19
2023-05-04T10:43:50.419Z,20.84
2023-05-04T10:46:18.846Z,20.76
2023-05-04T10:48:47.075Z,21.36
2023-05-04T10:51:14.075Z,21.06
2023-05-04T10:54:00.464Z,21.39
2023-05-04T10:56:28.877Z,21.80
2023-05-04T11:01:37.898Z,22.23
2023-05-04T11:04:04.451Z,22.19
2023-05-04T11:06:34.880Z,21.93
2023-05-04T11:09:05.854Z,22.19
2023-05-04T11:14:15.482Z,22.48
2023-05-04T11:16:43.858Z,22.49
2023-05-04T11:19:10.671Z,22.47
2023-05-04T11:21:41.252Z,22.67
2023-05-04T11:24:07.977Z,22.35
2023-05-04T11:26:37.482Z,22.41
2023-05-04T11:29:06.572Z,22.27
2023-05-04T11:31:33.313Z,22.24
2023-05-04T11:33:59.981Z,22.83
2023-05-04T11:36:30.372Z,23.03
2023-05-04T11:38:58.328Z,22.93
2023-05-04T11:41:29.305Z,23.32
2023-05-04T11:43:56.219Z,23.14
2023-05-04T11:46:24.165Z,22.88
2023-05-04T11:48:59.303Z,22.80
2023-05-04T11:51:25.900Z,23.13
2023-05-04T11:53:55.002Z,23.61
2023-05-04T11:56:21.591Z,23.51
2023-05-04T11:58:49.058Z,23.39
2023-05-04T12:01:15.672Z,23.56
2023-05-04T12:03:52.223Z,23.47
2023-05-04T12:06:21.411Z,24.04
2023-05-04T12:08:48.291Z,23.70
2023-05-04T12:11:19.362Z,23.20
2023-05-04T12:13:46.055Z,23.58
2023-05-04T12:16:13.661Z,24.01
2023-05-04T12:18:41.281Z,24.20
2023-05-04T12:21:08.888Z,23.99
2023-05-04T12:23:35.872Z,24.33
2023-05-04T12:26:04.605Z,24.53
2023-05-04T12:28:33.473Z,24.76
2023-05-04T12:31:00.319Z,24.12
2023-05-04T12:33:30.371Z,23.58
2023-05-04T12:36:11.820Z,23.99
2023-05-04T12:39:00.107Z,24.14
2023-05-04T12:41:28.935Z,24.36
2023-05-04T12:44:02.691Z,24.60
2023-05-04T12:46:29.768Z,24.08
2023-05-04T12:55:11.853Z,23.71
2023-05-04T12:57:46.327Z,23.91
2023-05-04T13:03:31.839Z,23.71
2023-05-04T13:12:39.355Z,24.56
2023-05-04T13:17:56.457Z,24.52
2023-05-04T13:20:26.309Z,24.77
2023-05-04T13:22:58.629Z,24.77
2023-05-04T13:25:57.945Z,24.14
2023-05-04T13:31:58.822Z,24.76
2023-05-04T13:37:37.432Z,24.41
2023-05-04T13:40:04.431Z,25.14
2023-05-04T13:58:16.796Z,25.52
2023-05-04T14:37:51.439Z,26.46
2023-05-04T15:13:39.558Z,26.26
2023-05-04T15:23:16.499Z,26.72
2023-05-04T15:25:37.284Z,26.67
2023-05-04T15:31:02.528Z,26.41
2023-05-04T15:33:30.078Z,25.98
2023-05-04T15:35:58.357Z,26.35
2023-05-04T15:38:29.089Z,26.00
2023-05-04T15:40:56.552Z,26.49
2023-05-04T15:43:35.474Z,26.65
2023-05-04T15:46:08.697Z,26.72
2023-05-04T15:51:38.487Z,26.32
2023-05-04T15:54:06.823Z,26.82
2023-05-04T15:56:48.717Z,26.59
2023-05-04T15:59:44.333Z,25.77
2023-05-04T16:05:07.791Z,26.26
2023-05-04T16:10:41.942Z,25.72
2023-05-04T16:28:16.685Z,26.15
2023-05-04T16:39:34.880Z,26.44
2023-05-04T16:48:27.512Z,26.62
2023-05-04T17:12:09.083Z,26.50
2023-05-04T17:24:02.126Z,26.05
2023-05-04T17:26:29.533Z,26.34
2023-05-04T17:28:56.443Z,25.89
2023-05-04T17:31:23.879Z,26.23
2023-05-04T17:33:50.885Z,26.08
2023-05-04T17:36:17.811Z,26.45
2023-05-04T17:38:44.288Z,26.43
2023-05-04T17:41:13.716Z,26.24
2023-05-04T17:47:00.591Z,26.64
2023-05-04T17:49:34.049Z,26.38
2023-05-04T17:52:06.722Z,26.13
2023-05-04T17:54:36.814Z,26.16
2023-05-04T17:57:03.447Z,26.44
2023-05-04T17:59:35.865Z,26.39
2023-05-04T18:05:08.822Z,26.27
2023-05-04T18:07:40.411Z,26.12
2023-05-04T18:10:22.494Z,25.68
2023-05-04T18:13:05.026Z,25.64
2023-05-04T18:15:55.220Z,25.70
2023-05-04T18:18:22.555Z,25.69
2023-05-04T18:24:00.459Z,25.12
2023-05-04T18:26:27.349Z,25.05
2023-05-04T18:29:11.129Z,25.09
2023-05-04T18:31:57.704Z,25.34
2023-05-04T18:37:32.722Z,25.14
2023-05-04T18:40:01.744Z,25.14
2023-05-04T18:42:28.299Z,25.13
2023-05-04T18:44:55.230Z,25.13
2023-05-04T18:50:37.307Z,25.13
2023-05-04T18:53:26.742Z,24.89
2023-05-04T18:55:53.452Z,24.87
2023-05-04T18:58:24.074Z,24.74
2023-05-04T19:00:58.325Z,24.52
2023-05-04T19:03:40.098Z,24.64
2023-05-04T19:06:26.509Z,24.61
2023-05-04T19:08:53.101Z,24.51
2023-05-04T19:11:22.915Z,24.43
2023-05-04T19:13:57.002Z,24.06
2023-05-04T19:16:23.897Z,23.82
2023-05-04T19:18:50.434Z,23.95
2023-05-04T19:21:19.162Z,24.03
2023-05-04T19:23:45.767Z,24.27
2023-05-04T19:26:19.697Z,24.33
2023-05-04T19:28:52.004Z,24.43
2023-05-04T19:31:19.580Z,24.52
2023-05-04T19:33:48.848Z,24.04
2023-05-04T19:36:23.251Z,24.33
2023-05-04T19:38:53.580Z,24.35
2023-05-04T19:41:20.400Z,24.30
2023-05-04T19:43:47.230Z,24.08
2023-05-04T19:46:16.111Z,24.14
2023-05-04T19:48:43.428Z,24.14
2023-05-04T19:51:10.229Z,24.02
2023-05-04T19:53:36.818Z,23.93
2023-05-04T19:56:05.182Z,23.82
2023-05-04T19:58:32.123Z,23.81
2023-05-04T20:00:59.123Z,24.07
2023-05-04T20:03:27.115Z,23.44
2023-05-04T20:05:54.504Z,22.81
2023-05-04T20:08:21.069Z,22.34
2023-05-04T20:10:48.034Z,22.56
2023-05-04T20:13:15.405Z,22.95
2023-05-04T20:15:41.872Z,23.05
2023-05-04T20:18:09.093Z,23.03
2023-05-04T20:20:37.609Z,23.30
2023-05-04T20:23:05.487Z,23.15
2023-05-04T20:25:32.074Z,23.60
2023-05-04T20:27:59.341Z,23.58
2023-05-04T20:30:28.084Z,23.44
2023-05-04T20:32:54.717Z,23.31
2023-05-04T20:35:22.066Z,23.35
2023-05-04T20:37:49.413Z,22.45
2023-05-04T20:40:16.260Z,21.66
2023-05-04T20:42:43.098Z,21.76
2023-05-04T20:45:09.667Z,22.08
2023-05-04T20:47:44.158Z,21.96
2023-05-04T20:50:11.274Z,22.45
2023-05-04T20:52:38.051Z,22.01
2023-05-04T20:55:04.989Z,21.83
2023-05-04T20:57:31.846Z,22.04
2023-05-04T20:59:58.366Z,21.58
2023-05-04T21:02:26.343Z,22.00
2023-05-04T21:05:00.373Z,22.33
2023-05-04T21:07:28.309Z,22.51
2023-05-04T21:09:55.570Z,22.11
2023-05-04T21:12:22.830Z,21.68
2023-05-04T21:14:52.087Z,21.21
2023-05-04T21:17:26.217Z,21.53
2023-05-04T21:19:53.071Z,20.99
2023-05-04T21:22:19.609Z,21.05
2023-05-04T21:24:46.414Z,21.45
2023-05-04T21:27:12.944Z,21.68
2023-05-04T21:29:40.094Z,21.32
2023-05-04T21:32:06.590Z,21.84
2023-05-04T21:34:33.741Z,22.14
2023-05-04T21:37:03.415Z,22.29
2023-05-04T21:39:30.255Z,22.00
2023-05-04T21:41:57.609Z,21.86
2023-05-04T21:44:24.492Z,22.00
2023-05-04T21:46:51.318Z,22.35
2023-05-04T21:49:18.609Z,22.08
2023-05-04T21:51:45.868Z,22.02
2023-05-04T21:54:12.436Z,21.80
2023-05-04T21:56:39.142Z,21.82
2023-05-04T21:59:13.143Z,21.98
2023-05-04T22:01:40.025Z,22.04
2023-05-04T22:04:08.822Z,21.90
2023-05-04T22:06:35.727Z,21.46
2023-05-04T22:09:09.931Z,21.49
2023-05-04T22:11:36.720Z,21.81
2023-05-04T22:14:03.391Z,22.11
2023-05-04T22:16:30.046Z,21.72
2023-05-04T22:18:56.892Z,21.85
2023-05-04T22:21:23.977Z,21.64
2023-05-04T22:23:57.951Z,21.58
2023-05-04T22:26:24.517Z,21.34
2023-05-04T22:28:52.901Z,21.32
2023-05-04T22:31:19.506Z,20.59
2023-05-04T22:33:53.629Z,20.90
2023-05-04T22:36:20.919Z,21.05
2023-05-04T22:38:48.712Z,20.96
2023-05-04T22:41:22.716Z,21.26
2023-05-04T22:43:49.292Z,21.34
2023-05-04T22:48:44.587Z,20.42
2023-05-04T22:51:11.175Z,20.34
2023-05-04T22:53:38.092Z,20.65
2023-05-04T22:56:04.564Z,20.26
2023-05-04T22:58:31.034Z,20.55
2023-05-04T23:00:58.342Z,20.34
2023-05-04T23:03:25.958Z,20.81
2023-05-04T23:06:00.206Z,20.58
2023-05-04T23:08:27.036Z,20.49
2023-05-04T23:10:53.580Z,20.22
2023-05-04T23:13:20.070Z,20.79
2023-05-04T23:16:02.031Z,20.89
2023-05-04T23:18:36.009Z,20.79
2023-05-04T23:21:05.030Z,20.56
2023-05-04T23:23:31.965Z,20.32
2023-05-04T23:25:58.994Z,20.13
2023-05-04T23:28:25.891Z,20.63
2023-05-04T23:30:53.480Z,21.04
2023-05-04T23:33:20.107Z,21.25
2023-05-04T23:35:46.768Z,21.49
2023-05-04T23:38:13.786Z,21.78
2023-05-04T23:40:40.399Z,21.30
2023-05-04T23:43:06.961Z,21.46
2023-05-04T23:45:33.587Z,21.78
2023-05-04T23:48:09.098Z,21.84
2023-05-04T23:50:37.516Z,21.82
2023-05-04T23:53:04.154Z,21.65
2023-05-04T23:55:30.699Z,21.71
2023-05-04T23:57:58.105Z,21.49
